TAF PGWT
PGWT 090520Z 0906/1006 08013KT P6SM VCSH SCT018 SCT060=
METAR PGWT
WC PGWT
WS PGWT
WV PGWT